sensor_id;sensor_type;location;lat;lon;timestamp;P1;durP1;ratioP1;P2;durP2;ratioP2
29294;SDS011;16305;48.566;8.846;2022-09-25T00:00:39;30.93;;;12.57;;
29294;SDS011;16305;48.566;8.846;2022-09-25T00:03:06;26.17;;;13.67;;
29294;SDS011;16305;48.566;8.846;2022-09-25T00:05:34;23.67;;;12.70;;
29294;SDS011;16305;48.566;8.846;2022-09-25T00:08:00;16.20;;;12.00;;
29294;SDS011;16305;48.566;8.846;2022-09-25T00:10:27;32.40;;;11.70;;
29294;SDS011;16305;48.566;8.846;2022-09-25T00:12:54;26.23;;;11.73;;
29294;SDS011;16305;48.566;8.846;2022-09-25T00:15:19;41.53;;;13.60;;
29294;SDS011;16305;48.566;8.846;2022-09-25T00:17:45;29.40;;;11.60;;
29294;SDS011;16305;48.566;8.846;2022-09-25T00:20:11;27.83;;;10.93;;
29294;SDS011;16305;48.566;8.846;2022-09-25T00:22:38;25.67;;;12.10;;
29294;SDS011;16305;48.566;8.846;2022-09-25T00:25:03;15.40;;;12.23;;
29294;SDS011;16305;48.566;8.846;2022-09-25T00:27:29;17.87;;;13.83;;
29294;SDS011;16305;48.566;8.846;2022-09-25T00:29:56;16.17;;;13.67;;
29294;SDS011;16305;48.566;8.846;2022-09-25T00:32:23;14.97;;;12.30;;
29294;SDS011;16305;48.566;8.846;2022-09-25T00:34:49;13.63;;;12.00;;
29294;SDS011;16305;48.566;8.846;2022-09-25T00:37:14;14.93;;;12.07;;
29294;SDS011;16305;48.566;8.846;2022-09-25T00:39:40;13.40;;;11.83;;
29294;SDS011;16305;48.566;8.846;2022-09-25T00:42:05;15.30;;;11.37;;
29294;SDS011;16305;48.566;8.846;2022-09-25T00:50:33;12.67;;;11.17;;
29294;SDS011;16305;48.566;8.846;2022-09-25T00:53:07;13.10;;;11.30;;
29294;SDS011;16305;48.566;8.846;2022-09-25T00:55:36;12.13;;;10.80;;
29294;SDS011;16305;48.566;8.846;2022-09-25T00:58:04;17.87;;;11.67;;
29294;SDS011;16305;48.566;8.846;2022-09-25T01:00:31;14.67;;;11.37;;
29294;SDS011;16305;48.566;8.846;2022-09-25T01:02:57;23.93;;;11.77;;
29294;SDS011;16305;48.566;8.846;2022-09-25T01:05:28;14.43;;;11.43;;
29294;SDS011;16305;48.566;8.846;2022-09-25T01:07:57;13.73;;;10.90;;
29294;SDS011;16305;48.566;8.846;2022-09-25T01:10:25;27.80;;;12.40;;
29294;SDS011;16305;48.566;8.846;2022-09-25T01:12:51;34.40;;;13.63;;
29294;SDS011;16305;48.566;8.846;2022-09-25T01:15:20;74.50;;;13.00;;
29294;SDS011;16305;48.566;8.846;2022-09-25T01:20:47;49.90;;;11.93;;
29294;SDS011;16305;48.566;8.846;2022-09-25T01:23:35;27.83;;;12.80;;
29294;SDS011;16305;48.566;8.846;2022-09-25T01:40:25;14.03;;;11.43;;
29294;SDS011;16305;48.566;8.846;2022-09-25T01:42:53;14.90;;;11.90;;
29294;SDS011;16305;48.566;8.846;2022-09-25T01:45:29;17.47;;;12.83;;
29294;SDS011;16305;48.566;8.846;2022-09-25T01:48:00;25.00;;;12.80;;
29294;SDS011;16305;48.566;8.846;2022-09-25T01:50:29;21.60;;;11.97;;
29294;SDS011;16305;48.566;8.846;2022-09-25T01:53:01;18.50;;;12.00;;
29294;SDS011;16305;48.566;8.846;2022-09-25T01:55:33;25.43;;;13.10;;
29294;SDS011;16305;48.566;8.846;2022-09-25T01:58:19;16.77;;;11.63;;
29294;SDS011;16305;48.566;8.846;2022-09-25T02:01:00;12.43;;;10.73;;
29294;SDS011;16305;48.566;8.846;2022-09-25T02:03:31;18.20;;;11.30;;
29294;SDS011;16305;48.566;8.846;2022-09-25T02:06:07;24.50;;;12.20;;
29294;SDS011;16305;48.566;8.846;2022-09-25T02:08:41;30.70;;;11.13;;
29294;SDS011;16305;48.566;8.846;2022-09-25T02:11:11;23.73;;;10.47;;
29294;SDS011;16305;48.566;8.846;2022-09-25T02:14:01;20.27;;;10.73;;
29294;SDS011;16305;48.566;8.846;2022-09-25T02:16:34;31.23;;;10.27;;
29294;SDS011;16305;48.566;8.846;2022-09-25T02:19:03;41.10;;;10.73;;
29294;SDS011;16305;48.566;8.846;2022-09-25T02:24:31;19.53;;;10.67;;
29294;SDS011;16305;48.566;8.846;2022-09-25T02:27:01;24.73;;;11.10;;
29294;SDS011;16305;48.566;8.846;2022-09-25T02:29:27;30.23;;;11.03;;
29294;SDS011;16305;48.566;8.846;2022-09-25T02:31:54;19.27;;;11.00;;
29294;SDS011;16305;48.566;8.846;2022-09-25T02:34:23;19.07;;;12.00;;
29294;SDS011;16305;48.566;8.846;2022-09-25T02:36:50;25.63;;;11.87;;
29294;SDS011;16305;48.566;8.846;2022-09-25T02:39:17;25.60;;;12.43;;
29294;SDS011;16305;48.566;8.846;2022-09-25T02:49:47;21.83;;;13.87;;
29294;SDS011;16305;48.566;8.846;2022-09-25T02:55:06;14.50;;;12.00;;
29294;SDS011;16305;48.566;8.846;2022-09-25T02:57:38;11.93;;;10.60;;
29294;SDS011;16305;48.566;8.846;2022-09-25T03:00:12;12.80;;;10.57;;
29294;SDS011;16305;48.566;8.846;2022-09-25T03:02:38;12.60;;;10.20;;
29294;SDS011;16305;48.566;8.846;2022-09-25T03:05:08;11.13;;;9.87;;
29294;SDS011;16305;48.566;8.846;2022-09-25T03:07:35;10.53;;;9.43;;
29294;SDS011;16305;48.566;8.846;2022-09-25T03:10:21;12.23;;;10.67;;
29294;SDS011;16305;48.566;8.846;2022-09-25T03:12:48;10.60;;;9.50;;
29294;SDS011;16305;48.566;8.846;2022-09-25T03:15:13;11.10;;;9.73;;
29294;SDS011;16305;48.566;8.846;2022-09-25T03:17:40;10.80;;;9.70;;
29294;SDS011;16305;48.566;8.846;2022-09-25T03:20:06;11.63;;;10.30;;
29294;SDS011;16305;48.566;8.846;2022-09-25T03:22:33;13.93;;;11.23;;
29294;SDS011;16305;48.566;8.846;2022-09-25T03:24:59;18.47;;;13.10;;
29294;SDS011;16305;48.566;8.846;2022-09-25T03:27:25;18.23;;;13.60;;
29294;SDS011;16305;48.566;8.846;2022-09-25T03:29:52;22.80;;;13.70;;
29294;SDS011;16305;48.566;8.846;2022-09-25T03:32:19;18.70;;;13.63;;
29294;SDS011;16305;48.566;8.846;2022-09-25T03:34:45;17.27;;;13.17;;
29294;SDS011;16305;48.566;8.846;2022-09-25T03:37:10;21.30;;;15.20;;
29294;SDS011;16305;48.566;8.846;2022-09-25T03:39:36;22.20;;;16.63;;
29294;SDS011;16305;48.566;8.846;2022-09-25T03:42:01;20.17;;;15.20;;
29294;SDS011;16305;48.566;8.846;2022-09-25T03:44:27;19.80;;;14.20;;
29294;SDS011;16305;48.566;8.846;2022-09-25T03:46:53;20.60;;;14.00;;
29294;SDS011;16305;48.566;8.846;2022-09-25T03:49:18;22.40;;;16.13;;
29294;SDS011;16305;48.566;8.846;2022-09-25T03:51:44;20.53;;;16.27;;
29294;SDS011;16305;48.566;8.846;2022-09-25T03:54:09;18.83;;;14.97;;
29294;SDS011;16305;48.566;8.846;2022-09-25T03:56:35;15.17;;;12.30;;
29294;SDS011;16305;48.566;8.846;2022-09-25T03:59:00;14.30;;;12.03;;
29294;SDS011;16305;48.566;8.846;2022-09-25T04:01:26;14.10;;;10.87;;
29294;SDS011;16305;48.566;8.846;2022-09-25T04:03:52;12.77;;;10.37;;
29294;SDS011;16305;48.566;8.846;2022-09-25T04:06:19;10.33;;;9.20;;
29294;SDS011;16305;48.566;8.846;2022-09-25T04:08:48;16.67;;;9.83;;
29294;SDS011;16305;48.566;8.846;2022-09-25T04:11:14;23.37;;;10.93;;
29294;SDS011;16305;48.566;8.846;2022-09-25T04:13:41;17.57;;;9.27;;
29294;SDS011;16305;48.566;8.846;2022-09-25T04:16:09;115.87;;;10.23;;
29294;SDS011;16305;48.566;8.846;2022-09-25T04:18:35;81.57;;;10.43;;
29294;SDS011;16305;48.566;8.846;2022-09-25T04:21:02;15.47;;;8.97;;
29294;SDS011;16305;48.566;8.846;2022-09-25T04:23:30;35.47;;;9.33;;
29294;SDS011;16305;48.566;8.846;2022-09-25T04:25:56;50.07;;;9.23;;
29294;SDS011;16305;48.566;8.846;2022-09-25T04:28:22;38.33;;;9.30;;
29294;SDS011;16305;48.566;8.846;2022-09-25T04:30:48;56.40;;;8.40;;
29294;SDS011;16305;48.566;8.846;2022-09-25T04:33:14;166.27;;;9.27;;
29294;SDS011;16305;48.566;8.846;2022-09-25T04:35:58;33.13;;;8.33;;
29294;SDS011;16305;48.566;8.846;2022-09-25T04:38:24;17.83;;;7.27;;
29294;SDS011;16305;48.566;8.846;2022-09-25T04:40:50;33.23;;;7.77;;
29294;SDS011;16305;48.566;8.846;2022-09-25T04:43:15;68.27;;;8.73;;
29294;SDS011;16305;48.566;8.846;2022-09-25T04:45:41;60.40;;;10.27;;
29294;SDS011;16305;48.566;8.846;2022-09-25T04:48:06;52.37;;;15.77;;
29294;SDS011;16305;48.566;8.846;2022-09-25T04:50:32;44.90;;;11.77;;
29294;SDS011;16305;48.566;8.846;2022-09-25T04:52:59;38.90;;;12.20;;
29294;SDS011;16305;48.566;8.846;2022-09-25T04:55:25;27.63;;;12.40;;
29294;SDS011;16305;48.566;8.846;2022-09-25T04:57:51;34.93;;;12.87;;
29294;SDS011;16305;48.566;8.846;2022-09-25T05:00:25;51.73;;;12.90;;
29294;SDS011;16305;48.566;8.846;2022-09-25T05:02:53;19.70;;;12.43;;
29294;SDS011;16305;48.566;8.846;2022-09-25T05:05:18;19.00;;;11.10;;
29294;SDS011;16305;48.566;8.846;2022-09-25T05:07:51;21.73;;;12.27;;
29294;SDS011;16305;48.566;8.846;2022-09-25T05:10:17;61.37;;;12.67;;
29294;SDS011;16305;48.566;8.846;2022-09-25T05:12:43;48.00;;;9.60;;
29294;SDS011;16305;48.566;8.846;2022-09-25T05:15:09;18.60;;;8.93;;
29294;SDS011;16305;48.566;8.846;2022-09-25T05:17:35;21.00;;;8.90;;
29294;SDS011;16305;48.566;8.846;2022-09-25T05:20:01;14.27;;;9.00;;
29294;SDS011;16305;48.566;8.846;2022-09-25T05:22:27;15.37;;;9.67;;
29294;SDS011;16305;48.566;8.846;2022-09-25T05:24:53;13.70;;;10.50;;
29294;SDS011;16305;48.566;8.846;2022-09-25T05:27:18;11.40;;;9.90;;
29294;SDS011;16305;48.566;8.846;2022-09-25T05:29:45;9.40;;;8.37;;
29294;SDS011;16305;48.566;8.846;2022-09-25T05:32:10;10.77;;;9.00;;
29294;SDS011;16305;48.566;8.846;2022-09-25T05:34:36;9.03;;;8.13;;
29294;SDS011;16305;48.566;8.846;2022-09-25T05:37:01;8.80;;;7.77;;
29294;SDS011;16305;48.566;8.846;2022-09-25T05:39:27;8.00;;;7.10;;
29294;SDS011;16305;48.566;8.846;2022-09-25T05:41:53;9.77;;;8.03;;
29294;SDS011;16305;48.566;8.846;2022-09-25T05:44:18;8.73;;;7.40;;
29294;SDS011;16305;48.566;8.846;2022-09-25T05:46:45;8.13;;;7.30;;
29294;SDS011;16305;48.566;8.846;2022-09-25T05:49:10;8.33;;;7.53;;
29294;SDS011;16305;48.566;8.846;2022-09-25T05:51:36;8.90;;;7.63;;
29294;SDS011;16305;48.566;8.846;2022-09-25T05:54:01;21.23;;;9.10;;
29294;SDS011;16305;48.566;8.846;2022-09-25T05:56:27;11.67;;;8.60;;
29294;SDS011;16305;48.566;8.846;2022-09-25T05:58:52;14.43;;;8.93;;
29294;SDS011;16305;48.566;8.846;2022-09-25T06:01:19;9.77;;;8.73;;
29294;SDS011;16305;48.566;8.846;2022-09-25T06:03:44;10.07;;;8.93;;
29294;SDS011;16305;48.566;8.846;2022-09-25T06:06:10;14.27;;;9.87;;
29294;SDS011;16305;48.566;8.846;2022-09-25T06:08:36;22.13;;;9.50;;
29294;SDS011;16305;48.566;8.846;2022-09-25T06:11:02;44.60;;;11.07;;
29294;SDS011;16305;48.566;8.846;2022-09-25T06:13:29;15.80;;;11.30;;
29294;SDS011;16305;48.566;8.846;2022-09-25T06:15:57;36.57;;;11.57;;
29294;SDS011;16305;48.566;8.846;2022-09-25T06:18:23;30.30;;;12.47;;
29294;SDS011;16305;48.566;8.846;2022-09-25T06:20:49;16.83;;;11.00;;
29294;SDS011;16305;48.566;8.846;2022-09-25T06:23:15;32.37;;;12.23;;
29294;SDS011;16305;48.566;8.846;2022-09-25T06:25:42;15.00;;;11.87;;
29294;SDS011;16305;48.566;8.846;2022-09-25T06:28:09;17.60;;;12.53;;
29294;SDS011;16305;48.566;8.846;2022-09-25T06:30:38;23.30;;;13.47;;
29294;SDS011;16305;48.566;8.846;2022-09-25T06:35:31;28.17;;;15.60;;
29294;SDS011;16305;48.566;8.846;2022-09-25T06:37:58;23.47;;;15.50;;
29294;SDS011;16305;48.566;8.846;2022-09-25T06:40:25;23.93;;;15.87;;
29294;SDS011;16305;48.566;8.846;2022-09-25T06:45:25;19.73;;;13.73;;
29294;SDS011;16305;48.566;8.846;2022-09-25T06:47:52;23.90;;;13.77;;
29294;SDS011;16305;48.566;8.846;2022-09-25T06:50:23;28.30;;;15.40;;
29294;SDS011;16305;48.566;8.846;2022-09-25T06:52:55;23.63;;;14.27;;
29294;SDS011;16305;48.566;8.846;2022-09-25T06:55:24;21.33;;;14.40;;
29294;SDS011;16305;48.566;8.846;2022-09-25T06:57:53;38.20;;;14.67;;
29294;SDS011;16305;48.566;8.846;2022-09-25T07:00:19;31.43;;;13.63;;
29294;SDS011;16305;48.566;8.846;2022-09-25T07:02:44;26.60;;;13.43;;
29294;SDS011;16305;48.566;8.846;2022-09-25T07:05:28;22.27;;;12.80;;
29294;SDS011;16305;48.566;8.846;2022-09-25T07:07:54;20.10;;;13.07;;
29294;SDS011;16305;48.566;8.846;2022-09-25T07:10:20;52.50;;;13.17;;
29294;SDS011;16305;48.566;8.846;2022-09-25T07:12:46;23.50;;;13.43;;
29294;SDS011;16305;48.566;8.846;2022-09-25T07:15:12;23.93;;;14.27;;
29294;SDS011;16305;48.566;8.846;2022-09-25T07:17:41;25.43;;;16.47;;
29294;SDS011;16305;48.566;8.846;2022-09-25T07:20:08;19.83;;;15.27;;
29294;SDS011;16305;48.566;8.846;2022-09-25T07:22:36;24.47;;;15.43;;
29294;SDS011;16305;48.566;8.846;2022-09-25T07:25:02;17.93;;;13.17;;
29294;SDS011;16305;48.566;8.846;2022-09-25T07:27:28;24.53;;;16.13;;
29294;SDS011;16305;48.566;8.846;2022-09-25T07:29:54;30.60;;;18.17;;
29294;SDS011;16305;48.566;8.846;2022-09-25T07:32:20;31.87;;;19.03;;
29294;SDS011;16305;48.566;8.846;2022-09-25T07:34:46;20.73;;;15.33;;
29294;SDS011;16305;48.566;8.846;2022-09-25T07:37:14;25.03;;;17.40;;
29294;SDS011;16305;48.566;8.846;2022-09-25T07:39:39;17.47;;;12.73;;
29294;SDS011;16305;48.566;8.846;2022-09-25T07:42:05;21.33;;;15.10;;
29294;SDS011;16305;48.566;8.846;2022-09-25T07:44:31;21.27;;;16.40;;
29294;SDS011;16305;48.566;8.846;2022-09-25T07:46:56;20.40;;;13.57;;
29294;SDS011;16305;48.566;8.846;2022-09-25T07:49:23;16.83;;;12.80;;
29294;SDS011;16305;48.566;8.846;2022-09-25T07:51:48;15.67;;;12.37;;
29294;SDS011;16305;48.566;8.846;2022-09-25T07:54:14;17.17;;;13.23;;
29294;SDS011;16305;48.566;8.846;2022-09-25T07:56:39;15.10;;;11.77;;
29294;SDS011;16305;48.566;8.846;2022-09-25T07:59:05;14.13;;;12.10;;
29294;SDS011;16305;48.566;8.846;2022-09-25T08:01:30;14.00;;;11.53;;
29294;SDS011;16305;48.566;8.846;2022-09-25T08:03:56;14.07;;;11.90;;
29294;SDS011;16305;48.566;8.846;2022-09-25T08:06:21;15.50;;;13.03;;
29294;SDS011;16305;48.566;8.846;2022-09-25T08:08:47;15.37;;;13.00;;
29294;SDS011;16305;48.566;8.846;2022-09-25T08:11:13;23.03;;;16.73;;
29294;SDS011;16305;48.566;8.846;2022-09-25T08:13:41;15.23;;;12.83;;
29294;SDS011;16305;48.566;8.846;2022-09-25T08:16:14;17.13;;;15.33;;
29294;SDS011;16305;48.566;8.846;2022-09-25T08:18:41;13.93;;;12.27;;
29294;SDS011;16305;48.566;8.846;2022-09-25T08:21:09;12.77;;;11.40;;
29294;SDS011;16305;48.566;8.846;2022-09-25T08:23:38;13.47;;;11.17;;
29294;SDS011;16305;48.566;8.846;2022-09-25T08:26:04;14.83;;;11.60;;
29294;SDS011;16305;48.566;8.846;2022-09-25T08:28:30;11.30;;;10.20;;
29294;SDS011;16305;48.566;8.846;2022-09-25T08:30:59;12.30;;;10.37;;
29294;SDS011;16305;48.566;8.846;2022-09-25T08:33:28;10.93;;;9.83;;
29294;SDS011;16305;48.566;8.846;2022-09-25T08:35:55;10.77;;;9.10;;
29294;SDS011;16305;48.566;8.846;2022-09-25T08:38:22;10.53;;;9.53;;
29294;SDS011;16305;48.566;8.846;2022-09-25T08:43:36;10.07;;;9.10;;
29294;SDS011;16305;48.566;8.846;2022-09-25T08:46:18;9.70;;;8.70;;
29294;SDS011;16305;48.566;8.846;2022-09-25T08:49:06;10.10;;;8.17;;
29294;SDS011;16305;48.566;8.846;2022-09-25T08:51:40;8.63;;;7.77;;
29294;SDS011;16305;48.566;8.846;2022-09-25T08:54:15;8.50;;;7.70;;
29294;SDS011;16305;48.566;8.846;2022-09-25T08:56:44;8.73;;;7.83;;
29294;SDS011;16305;48.566;8.846;2022-09-25T09:01:51;10.57;;;9.57;;
29294;SDS011;16305;48.566;8.846;2022-09-25T09:07:19;8.70;;;7.80;;
29294;SDS011;16305;48.566;8.846;2022-09-25T09:09:53;9.93;;;7.43;;
29294;SDS011;16305;48.566;8.846;2022-09-25T09:12:27;8.30;;;7.17;;
29294;SDS011;16305;48.566;8.846;2022-09-25T09:15:14;9.33;;;8.33;;
29294;SDS011;16305;48.566;8.846;2022-09-25T09:18:01;8.93;;;8.03;;
29294;SDS011;16305;48.566;8.846;2022-09-25T09:20:52;9.20;;;8.30;;
29294;SDS011;16305;48.566;8.846;2022-09-25T09:23:22;10.07;;;8.37;;
29294;SDS011;16305;48.566;8.846;2022-09-25T09:26:02;8.87;;;7.97;;
29294;SDS011;16305;48.566;8.846;2022-09-25T09:28:38;8.80;;;8.00;;
29294;SDS011;16305;48.566;8.846;2022-09-25T09:31:21;8.37;;;7.57;;
29294;SDS011;16305;48.566;8.846;2022-09-25T09:37:37;8.77;;;7.87;;
29294;SDS011;16305;48.566;8.846;2022-09-25T09:39:49;9.23;;;8.30;;
29294;SDS011;16305;48.566;8.846;2022-09-25T09:42:36;8.50;;;7.57;;
29294;SDS011;16305;48.566;8.846;2022-09-25T09:45:17;9.40;;;8.43;;
29294;SDS011;16305;48.566;8.846;2022-09-25T09:48:04;8.60;;;7.70;;
29294;SDS011;16305;48.566;8.846;2022-09-25T09:53:10;9.20;;;8.03;;
29294;SDS011;16305;48.566;8.846;2022-09-25T09:55:49;7.93;;;7.13;;
29294;SDS011;16305;48.566;8.846;2022-09-25T10:01:24;7.90;;;7.10;;
29294;SDS011;16305;48.566;8.846;2022-09-25T10:04:00;8.93;;;6.73;;
29294;SDS011;16305;48.566;8.846;2022-09-25T10:06:31;9.73;;;7.33;;
29294;SDS011;16305;48.566;8.846;2022-09-25T10:09:01;7.10;;;6.27;;
29294;SDS011;16305;48.566;8.846;2022-09-25T10:11:27;7.03;;;6.33;;
29294;SDS011;16305;48.566;8.846;2022-09-25T10:13:56;8.20;;;7.40;;
29294;SDS011;16305;48.566;8.846;2022-09-25T10:16:24;8.60;;;7.27;;
29294;SDS011;16305;48.566;8.846;2022-09-25T10:18:52;9.43;;;8.20;;
29294;SDS011;16305;48.566;8.846;2022-09-25T10:21:19;9.00;;;7.77;;
29294;SDS011;16305;48.566;8.846;2022-09-25T10:23:51;10.53;;;8.83;;
29294;SDS011;16305;48.566;8.846;2022-09-25T10:26:25;11.23;;;8.70;;
29294;SDS011;16305;48.566;8.846;2022-09-25T10:28:58;9.43;;;7.47;;
29294;SDS011;16305;48.566;8.846;2022-09-25T10:31:26;10.60;;;8.83;;
29294;SDS011;16305;48.566;8.846;2022-09-25T10:36:41;11.93;;;8.93;;
29294;SDS011;16305;48.566;8.846;2022-09-25T10:41:58;16.90;;;9.30;;
29294;SDS011;16305;48.566;8.846;2022-09-25T10:44:29;10.63;;;8.93;;
29294;SDS011;16305;48.566;8.846;2022-09-25T10:52:54;10.07;;;8.30;;
29294;SDS011;16305;48.566;8.846;2022-09-25T10:55:25;11.07;;;9.37;;
29294;SDS011;16305;48.566;8.846;2022-09-25T10:57:57;10.80;;;9.37;;
29294;SDS011;16305;48.566;8.846;2022-09-25T11:03:14;11.40;;;8.93;;
29294;SDS011;16305;48.566;8.846;2022-09-25T11:05:48;13.80;;;9.60;;
29294;SDS011;16305;48.566;8.846;2022-09-25T11:08:17;10.90;;;9.23;;
29294;SDS011;16305;48.566;8.846;2022-09-25T11:10:57;11.17;;;8.73;;
29294;SDS011;16305;48.566;8.846;2022-09-25T11:13:25;12.37;;;9.00;;
29294;SDS011;16305;48.566;8.846;2022-09-25T11:15:55;10.30;;;8.40;;
29294;SDS011;16305;48.566;8.846;2022-09-25T11:18:36;10.30;;;9.20;;
29294;SDS011;16305;48.566;8.846;2022-09-25T11:21:04;11.83;;;8.67;;
29294;SDS011;16305;48.566;8.846;2022-09-25T11:23:35;13.97;;;8.43;;
29294;SDS011;16305;48.566;8.846;2022-09-25T11:26:15;13.33;;;10.17;;
29294;SDS011;16305;48.566;8.846;2022-09-25T11:31:26;10.70;;;9.23;;
29294;SDS011;16305;48.566;8.846;2022-09-25T11:34:17;12.37;;;9.37;;
29294;SDS011;16305;48.566;8.846;2022-09-25T11:37:09;15.00;;;8.73;;
29294;SDS011;16305;48.566;8.846;2022-09-25T11:40:26;10.63;;;8.27;;
29294;SDS011;16305;48.566;8.846;2022-09-25T11:43:13;11.57;;;8.47;;
29294;SDS011;16305;48.566;8.846;2022-09-25T11:45:43;11.30;;;9.20;;
29294;SDS011;16305;48.566;8.846;2022-09-25T11:48:42;12.70;;;9.17;;
29294;SDS011;16305;48.566;8.846;2022-09-25T11:57:12;9.87;;;8.83;;
29294;SDS011;16305;48.566;8.846;2022-09-25T12:00:02;13.47;;;9.70;;
29294;SDS011;16305;48.566;8.846;2022-09-25T12:03:04;14.73;;;10.23;;
29294;SDS011;16305;48.566;8.846;2022-09-25T12:13:36;13.03;;;10.13;;
29294;SDS011;16305;48.566;8.846;2022-09-25T12:16:15;13.37;;;10.53;;
29294;SDS011;16305;48.566;8.846;2022-09-25T12:19:00;14.93;;;10.83;;
29294;SDS011;16305;48.566;8.846;2022-09-25T12:21:46;13.27;;;9.90;;
29294;SDS011;16305;48.566;8.846;2022-09-25T12:30:03;13.03;;;9.77;;
29294;SDS011;16305;48.566;8.846;2022-09-25T12:32:53;12.20;;;9.60;;
29294;SDS011;16305;48.566;8.846;2022-09-25T12:38:18;12.10;;;9.67;;
29294;SDS011;16305;48.566;8.846;2022-09-25T12:43:53;11.13;;;9.40;;
29294;SDS011;16305;48.566;8.846;2022-09-25T12:46:27;12.83;;;9.07;;
29294;SDS011;16305;48.566;8.846;2022-09-25T12:51:44;12.77;;;9.40;;
29294;SDS011;16305;48.566;8.846;2022-09-25T12:54:22;11.93;;;9.43;;
29294;SDS011;16305;48.566;8.846;2022-09-25T12:56:57;12.47;;;9.73;;
29294;SDS011;16305;48.566;8.846;2022-09-25T12:59:33;11.30;;;10.10;;
29294;SDS011;16305;48.566;8.846;2022-09-25T13:12:57;8.90;;;7.77;;
29294;SDS011;16305;48.566;8.846;2022-09-25T13:15:31;9.43;;;8.33;;
29294;SDS011;16305;48.566;8.846;2022-09-25T13:17:59;9.93;;;8.43;;
29294;SDS011;16305;48.566;8.846;2022-09-25T13:22:51;9.73;;;8.67;;
29294;SDS011;16305;48.566;8.846;2022-09-25T13:28:21;11.33;;;8.87;;
29294;SDS011;16305;48.566;8.846;2022-09-25T13:34:00;12.27;;;8.77;;
29294;SDS011;16305;48.566;8.846;2022-09-25T13:36:59;11.17;;;7.87;;
29294;SDS011;16305;48.566;8.846;2022-09-25T13:39:26;10.40;;;8.10;;
29294;SDS011;16305;48.566;8.846;2022-09-25T13:42:25;38.47;;;10.53;;
29294;SDS011;16305;48.566;8.846;2022-09-25T13:47:53;12.27;;;8.83;;
29294;SDS011;16305;48.566;8.846;2022-09-25T13:50:22;12.47;;;8.17;;
29294;SDS011;16305;48.566;8.846;2022-09-25T13:56:08;10.73;;;9.03;;
29294;SDS011;16305;48.566;8.846;2022-09-25T13:58:30;8.93;;;7.70;;
29294;SDS011;16305;48.566;8.846;2022-09-25T14:01:30;12.10;;;7.77;;
29294;SDS011;16305;48.566;8.846;2022-09-25T14:04:19;8.23;;;7.33;;
29294;SDS011;16305;48.566;8.846;2022-09-25T14:07:17;9.10;;;7.40;;
29294;SDS011;16305;48.566;8.846;2022-09-25T14:09:51;7.80;;;7.00;;
29294;SDS011;16305;48.566;8.846;2022-09-25T14:12:24;10.67;;;7.37;;
29294;SDS011;16305;48.566;8.846;2022-09-25T14:14:58;8.63;;;7.20;;
29294;SDS011;16305;48.566;8.846;2022-09-25T14:17:27;9.33;;;6.77;;
29294;SDS011;16305;48.566;8.846;2022-09-25T14:19:56;7.83;;;7.03;;
29294;SDS011;16305;48.566;8.846;2022-09-25T14:22:27;7.37;;;6.67;;
29294;SDS011;16305;48.566;8.846;2022-09-25T14:24:57;8.13;;;7.17;;
29294;SDS011;16305;48.566;8.846;2022-09-25T14:27:24;7.70;;;6.57;;
29294;SDS011;16305;48.566;8.846;2022-09-25T14:29:52;10.33;;;8.30;;
29294;SDS011;16305;48.566;8.846;2022-09-25T14:32:39;9.87;;;7.53;;
29294;SDS011;16305;48.566;8.846;2022-09-25T14:46:40;8.70;;;7.00;;
29294;SDS011;16305;48.566;8.846;2022-09-25T14:52:15;8.47;;;6.60;;
29294;SDS011;16305;48.566;8.846;2022-09-25T14:54:48;7.20;;;6.50;;
29294;SDS011;16305;48.566;8.846;2022-09-25T14:57:16;7.00;;;6.30;;
29294;SDS011;16305;48.566;8.846;2022-09-25T14:59:47;7.53;;;6.37;;
29294;SDS011;16305;48.566;8.846;2022-09-25T15:04:47;7.40;;;6.70;;
29294;SDS011;16305;48.566;8.846;2022-09-25T15:07:15;7.80;;;6.57;;
29294;SDS011;16305;48.566;8.846;2022-09-25T15:09:42;7.07;;;6.13;;
29294;SDS011;16305;48.566;8.846;2022-09-25T15:12:19;8.07;;;5.90;;
29294;SDS011;16305;48.566;8.846;2022-09-25T15:17:32;6.83;;;6.13;;
29294;SDS011;16305;48.566;8.846;2022-09-25T15:20:08;10.27;;;6.50;;
29294;SDS011;16305;48.566;8.846;2022-09-25T15:22:38;6.07;;;5.47;;
29294;SDS011;16305;48.566;8.846;2022-09-25T15:25:14;6.67;;;6.00;;
29294;SDS011;16305;48.566;8.846;2022-09-25T15:27:46;6.87;;;5.80;;
29294;SDS011;16305;48.566;8.846;2022-09-25T15:30:14;5.63;;;5.13;;
29294;SDS011;16305;48.566;8.846;2022-09-25T15:32:40;5.93;;;5.33;;
29294;SDS011;16305;48.566;8.846;2022-09-25T15:35:16;6.10;;;5.27;;
29294;SDS011;16305;48.566;8.846;2022-09-25T15:37:46;6.47;;;5.87;;
29294;SDS011;16305;48.566;8.846;2022-09-25T15:42:44;5.77;;;5.27;;
29294;SDS011;16305;48.566;8.846;2022-09-25T15:48:01;7.50;;;6.47;;
29294;SDS011;16305;48.566;8.846;2022-09-25T15:50:45;6.63;;;5.30;;
29294;SDS011;16305;48.566;8.846;2022-09-25T15:53:22;7.20;;;5.07;;
29294;SDS011;16305;48.566;8.846;2022-09-25T15:56:04;5.87;;;5.27;;
29294;SDS011;16305;48.566;8.846;2022-09-25T15:58:41;6.50;;;5.10;;
29294;SDS011;16305;48.566;8.846;2022-09-25T16:01:12;7.97;;;5.20;;
29294;SDS011;16305;48.566;8.846;2022-09-25T16:03:58;4.60;;;4.20;;
29294;SDS011;16305;48.566;8.846;2022-09-25T16:06:43;7.80;;;4.80;;
29294;SDS011;16305;48.566;8.846;2022-09-25T16:11:46;4.83;;;4.43;;
29294;SDS011;16305;48.566;8.846;2022-09-25T16:14:17;5.13;;;4.63;;
29294;SDS011;16305;48.566;8.846;2022-09-25T16:16:53;5.33;;;4.63;;
29294;SDS011;16305;48.566;8.846;2022-09-25T16:21:52;5.47;;;4.67;;
29294;SDS011;16305;48.566;8.846;2022-09-25T16:24:25;5.10;;;4.60;;
29294;SDS011;16305;48.566;8.846;2022-09-25T16:26:56;6.67;;;4.17;;
29294;SDS011;16305;48.566;8.846;2022-09-25T16:29:25;4.93;;;4.27;;
29294;SDS011;16305;48.566;8.846;2022-09-25T16:31:53;4.10;;;3.60;;
29294;SDS011;16305;48.566;8.846;2022-09-25T16:34:27;4.23;;;3.50;;
29294;SDS011;16305;48.566;8.846;2022-09-25T16:36:55;3.87;;;3.47;;
29294;SDS011;16305;48.566;8.846;2022-09-25T16:39:27;3.90;;;3.40;;
29294;SDS011;16305;48.566;8.846;2022-09-25T16:41:57;3.33;;;3.03;;
29294;SDS011;16305;48.566;8.846;2022-09-25T16:49:21;4.57;;;3.37;;
29294;SDS011;16305;48.566;8.846;2022-09-25T16:51:48;4.20;;;3.70;;
29294;SDS011;16305;48.566;8.846;2022-09-25T16:54:15;4.50;;;3.80;;
29294;SDS011;16305;48.566;8.846;2022-09-25T16:56:44;3.73;;;3.23;;
29294;SDS011;16305;48.566;8.846;2022-09-25T16:59:22;4.50;;;3.67;;
29294;SDS011;16305;48.566;8.846;2022-09-25T17:01:50;4.20;;;3.67;;
29294;SDS011;16305;48.566;8.846;2022-09-25T17:04:21;4.83;;;3.57;;
29294;SDS011;16305;48.566;8.846;2022-09-25T17:06:52;3.27;;;2.97;;
29294;SDS011;16305;48.566;8.846;2022-09-25T17:09:18;4.20;;;3.30;;
29294;SDS011;16305;48.566;8.846;2022-09-25T17:11:45;4.20;;;3.53;;
29294;SDS011;16305;48.566;8.846;2022-09-25T17:14:20;4.97;;;3.63;;
29294;SDS011;16305;48.566;8.846;2022-09-25T17:16:48;4.23;;;3.80;;
29294;SDS011;16305;48.566;8.846;2022-09-25T17:19:15;5.10;;;3.60;;
29294;SDS011;16305;48.566;8.846;2022-09-25T17:21:41;4.40;;;3.77;;
29294;SDS011;16305;48.566;8.846;2022-09-25T17:24:09;5.80;;;4.47;;
29294;SDS011;16305;48.566;8.846;2022-09-25T17:26:36;4.47;;;3.80;;
29294;SDS011;16305;48.566;8.846;2022-09-25T17:29:03;4.47;;;3.87;;
29294;SDS011;16305;48.566;8.846;2022-09-25T17:31:29;5.60;;;4.20;;
29294;SDS011;16305;48.566;8.846;2022-09-25T17:33:54;4.97;;;4.33;;
29294;SDS011;16305;48.566;8.846;2022-09-25T17:36:20;6.07;;;3.97;;
29294;SDS011;16305;48.566;8.846;2022-09-25T17:38:46;5.50;;;3.87;;